createdAt,value
2023-02-17T00:00:41.569Z,10.7
2023-02-17T00:02:42.985Z,9.7
2023-02-17T00:04:44.321Z,13.3
2023-02-17T00:06:45.706Z,9.9
2023-02-17T00:15:56.869Z,9.7
2023-02-17T00:17:58.190Z,9.4
2023-02-17T00:19:59.569Z,12
2023-02-17T00:24:05.615Z,11.6
2023-02-17T00:26:07.379Z,13.6
2023-02-17T00:28:08.355Z,12.2
2023-02-17T00:30:09.797Z,12.9
2023-02-17T00:32:11.260Z,14.6
2023-02-17T00:34:12.495Z,17
2023-02-17T00:36:17.160Z,19.6
2023-02-17T00:38:18.568Z,18.1
2023-02-17T00:40:19.929Z,4.8
2023-02-17T00:42:21.275Z,12.9
2023-02-17T00:44:22.676Z,14.1
2023-02-17T00:52:31.495Z,18.9
2023-02-17T00:58:35.654Z,16.5
2023-02-17T01:00:37.030Z,14.2
2023-02-17T01:02:38.372Z,12.1
2023-02-17T01:08:45.906Z,7.5
2023-02-17T01:09:48.247Z,11.1
2023-02-17T01:11:49.607Z,15.7
2023-02-17T01:13:51.005Z,13.3
2023-02-17T01:15:52.471Z,7.1
2023-02-17T01:17:57.038Z,12.7
2023-02-17T01:19:58.418Z,6.7
2023-02-17T01:21:59.768Z,11.6
2023-02-17T01:24:01.153Z,10.7
2023-02-17T01:26:02.518Z,14.6
2023-02-17T01:28:03.884Z,14.4
2023-02-17T01:30:05.387Z,6.5
2023-02-17T01:32:09.964Z,14.7
2023-02-17T01:34:11.311Z,14
2023-02-17T01:36:12.668Z,10
2023-02-17T01:40:15.472Z,10.5
2023-02-17T01:42:16.815Z,10.4
2023-02-17T01:46:22.885Z,11.7
2023-02-17T01:48:24.276Z,14
2023-02-17T01:52:26.987Z,10.5
2023-02-17T01:54:28.375Z,11.3
2023-02-17T01:56:29.752Z,11.8
2023-02-17T01:58:31.119Z,10.7
2023-02-17T02:00:35.763Z,12.7
2023-02-17T02:02:37.223Z,9.6
2023-02-17T02:04:38.520Z,11.1
2023-02-17T02:05:40.872Z,12.6
2023-02-17T02:07:42.240Z,11.7
2023-02-17T02:09:43.616Z,11.1
2023-02-17T02:11:45.021Z,5.8
2023-02-17T02:15:51.088Z,15.3
2023-02-17T02:17:52.446Z,9.6
2023-02-17T02:19:53.843Z,5.7
2023-02-17T02:21:55.231Z,13
2023-02-17T02:23:56.620Z,7.9
2023-02-17T02:25:57.999Z,12.9
2023-02-17T02:28:02.682Z,12.3
2023-02-17T02:30:04.081Z,14.9
2023-02-17T02:32:05.393Z,4.4
2023-02-17T02:36:08.307Z,10.2
2023-02-17T02:38:09.527Z,8.4
2023-02-17T02:40:10.901Z,5.5
2023-02-17T02:42:15.585Z,13.5
2023-02-17T02:44:16.998Z,9.8
2023-02-17T02:46:18.351Z,9.7
2023-02-17T02:50:21.131Z,14.1
2023-02-17T02:52:22.514Z,13.4
2023-02-17T02:54:23.889Z,14
2023-02-17T03:00:31.319Z,12.5
2023-02-17T03:02:54.265Z,11.9
2023-02-17T03:04:55.597Z,13.4
2023-02-17T03:06:57.009Z,6
2023-02-17T03:09:01.715Z,9.3
2023-02-17T03:11:03.025Z,5
2023-02-17T03:13:04.410Z,12
2023-02-17T03:15:05.822Z,13.1
2023-02-17T03:17:07.165Z,12.8
2023-02-17T03:19:08.548Z,6.1
2023-02-17T03:21:09.919Z,9.5
2023-02-17T03:23:14.599Z,12.1
2023-02-17T03:25:16.003Z,7.8
2023-02-17T03:27:17.346Z,14
2023-02-17T03:29:18.688Z,9.6
2023-02-17T03:31:20.191Z,13.3
2023-02-17T03:33:21.495Z,11.8
2023-02-17T03:35:22.860Z,11.5
2023-02-17T03:37:27.502Z,7.7
2023-02-17T03:39:28.872Z,11.9
2023-02-17T03:41:30.290Z,11
2023-02-17T03:43:31.619Z,11.1
2023-02-17T03:45:33.133Z,11.4
2023-02-17T03:47:34.400Z,14.1
2023-02-17T03:49:35.793Z,10.5
2023-02-17T03:51:40.420Z,9.8
2023-02-17T03:53:41.791Z,8.5
2023-02-17T03:55:43.165Z,13.5
2023-02-17T03:56:47.079Z,12.4
2023-02-17T03:58:48.404Z,10.6
2023-02-17T04:02:51.126Z,9
2023-02-17T04:04:55.805Z,9.1
2023-02-17T04:06:57.160Z,6
2023-02-17T04:08:58.538Z,10.7
2023-02-17T04:13:01.302Z,13
2023-02-17T04:15:02.644Z,6.4
2023-02-17T04:23:11.488Z,11.5
2023-02-17T04:27:14.210Z,9
2023-02-17T04:31:17.141Z,13.1
2023-02-17T04:33:21.630Z,11.8
2023-02-17T04:35:22.975Z,9.4
2023-02-17T04:37:24.344Z,10.5
2023-02-17T04:39:25.727Z,10.5
2023-02-17T04:45:29.874Z,11.8
2023-02-17T04:49:35.925Z,7.1
2023-02-17T04:51:37.298Z,9.8
2023-02-17T04:52:39.645Z,3.8
2023-02-17T04:54:41.005Z,10.4
2023-02-17T05:04:51.216Z,5.3
2023-02-17T05:10:55.301Z,5
2023-02-17T05:12:56.657Z,9.2
2023-02-17T05:17:02.758Z,4
2023-02-17T05:21:05.500Z,9
2023-02-17T05:23:06.856Z,7.3
2023-02-17T05:29:14.293Z,12.8
2023-02-17T05:31:15.802Z,10.6
2023-02-17T05:33:16.985Z,6
2023-02-17T05:35:18.396Z,10.2
2023-02-17T05:37:19.769Z,7.1
2023-02-17T05:39:21.128Z,8.7
2023-02-17T05:41:22.506Z,7.6
2023-02-17T05:43:27.180Z,9.6
2023-02-17T05:47:29.917Z,9.3
2023-02-17T05:50:33.624Z,7.5
2023-02-17T05:52:34.988Z,4.6
2023-02-17T05:54:36.381Z,9.2
2023-02-17T05:56:41.044Z,3.6
2023-02-17T05:58:42.446Z,3.3
2023-02-17T06:00:43.818Z,5.5
2023-02-17T06:02:45.197Z,5.3
2023-02-17T06:04:46.695Z,5
2023-02-17T06:06:47.960Z,4
2023-02-17T06:08:49.334Z,6.1
2023-02-17T06:10:54.034Z,4.6
2023-02-17T06:12:55.376Z,11.7
2023-02-17T06:14:56.725Z,7.3
2023-02-17T06:16:59.990Z,8.1
2023-02-17T06:18:59.458Z,11.7
2023-02-17T06:21:00.863Z,7.5
2023-02-17T06:23:02.219Z,10.9
2023-02-17T06:25:06.919Z,5.9
2023-02-17T06:27:08.287Z,11.2
2023-02-17T06:29:09.633Z,7.4
2023-02-17T06:31:11.085Z,9.3
2023-02-17T06:33:12.371Z,3.5
2023-02-17T06:35:13.724Z,10.3
2023-02-17T06:37:15.093Z,7.3
2023-02-17T06:39:19.790Z,10.9
2023-02-17T06:41:21.170Z,10.6
2023-02-17T06:43:22.511Z,9.1
2023-02-17T06:47:50.802Z,6.4
2023-02-17T06:49:52.162Z,9.5
2023-02-17T06:51:56.864Z,7.4
2023-02-17T06:53:58.221Z,3.9
2023-02-17T06:55:59.618Z,5.6
2023-02-17T06:58:00.984Z,9.1
2023-02-17T07:00:02.410Z,8.4
2023-02-17T07:02:03.860Z,4.3
2023-02-17T07:04:05.097Z,8.7
2023-02-17T07:06:09.771Z,6.5
2023-02-17T07:08:11.149Z,3
2023-02-17T07:10:12.523Z,7
2023-02-17T07:12:13.908Z,3.1
2023-02-17T07:14:15.260Z,5.5
2023-02-17T07:20:22.707Z,9.3
2023-02-17T07:22:24.048Z,8.9
2023-02-17T07:32:30.899Z,5.4
2023-02-17T07:34:35.574Z,4.2
2023-02-17T07:39:40.704Z,5.9
2023-02-17T07:41:42.038Z,10.5
2023-02-17T07:43:43.430Z,5.3
2023-02-17T07:45:44.835Z,4.7
2023-02-17T07:47:49.454Z,6.6
2023-02-17T07:49:50.813Z,4.4
2023-02-17T07:51:52.197Z,4.3
2023-02-17T07:53:53.622Z,3.9
2023-02-17T08:14:12.843Z,5.1
2023-02-17T08:18:16.699Z,7
2023-02-17T08:20:18.066Z,2.5
2023-02-17T08:24:20.846Z,5.3
2023-02-17T08:26:22.244Z,8.9
2023-02-17T08:28:23.564Z,8.1
2023-02-17T08:34:31.055Z,3
2023-02-17T08:35:33.446Z,8
2023-02-17T08:37:34.765Z,7.1
2023-02-17T08:39:36.113Z,9.3
2023-02-17T08:43:42.165Z,4.1
2023-02-17T08:45:43.569Z,6.6
2023-02-17T08:47:44.905Z,5.1
2023-02-17T08:55:50.408Z,5
2023-02-17T08:59:56.450Z,6.5
2023-02-17T09:06:00.606Z,7.4
2023-02-17T09:08:01.988Z,8.5
2023-02-17T09:10:03.324Z,7.5
2023-02-17T09:12:08.027Z,7
2023-02-17T09:14:09.485Z,4.8
2023-02-17T09:16:11.107Z,4.5
2023-02-17T09:18:12.192Z,5.3
2023-02-17T09:20:24.435Z,8.9
2023-02-17T09:22:29.757Z,5.9
2023-02-17T09:24:16.276Z,7.2
2023-02-17T09:26:20.975Z,6.4
2023-02-17T09:28:22.374Z,4.2
2023-02-17T09:30:23.819Z,4.8
2023-02-17T09:31:26.159Z,6.8
2023-02-17T09:33:27.414Z,5.8
2023-02-17T09:35:28.821Z,3.3
2023-02-17T09:37:30.265Z,1.7
2023-02-17T09:39:34.881Z,3.9
2023-02-17T09:41:36.249Z,3.7
2023-02-17T09:43:37.597Z,6.4
2023-02-17T09:45:38.982Z,4.9
2023-02-17T09:49:43.296Z,6.1
2023-02-17T09:51:44.689Z,6.7
2023-02-17T09:53:49.339Z,3
2023-02-17T09:57:52.074Z,7
2023-02-17T09:59:53.435Z,3.5
2023-02-17T10:01:54.829Z,1.4
2023-02-17T10:03:56.242Z,5.5
2023-02-17T10:10:03.753Z,5.1
2023-02-17T10:12:05.021Z,3
2023-02-17T10:14:06.463Z,2.6
2023-02-17T10:16:08.153Z,4.2
2023-02-17T10:18:09.264Z,3.2
2023-02-17T10:20:10.561Z,2.6
2023-02-17T10:22:15.262Z,2.6
2023-02-17T10:24:16.632Z,3.9
2023-02-17T10:26:18.008Z,2.2
2023-02-17T10:30:36.243Z,2.3
2023-02-17T10:32:37.624Z,3.1
2023-02-17T10:34:42.235Z,4.6
2023-02-17T10:36:43.600Z,4
2023-02-17T10:38:44.993Z,2.3
2023-02-17T10:40:46.373Z,5.9
2023-02-17T10:42:47.741Z,3.7
2023-02-17T10:44:49.092Z,4.6
2023-02-17T10:46:50.566Z,3.8
2023-02-17T10:48:55.146Z,2.7
2023-02-17T10:50:56.489Z,4.2
2023-02-17T10:57:00.652Z,3.1
2023-02-17T10:59:02.003Z,3.4
2023-02-17T11:01:03.416Z,2.8
2023-02-17T11:03:08.042Z,3.1
2023-02-17T11:05:09.385Z,4.2
2023-02-17T11:07:10.777Z,3
2023-02-17T11:09:12.143Z,2.3
2023-02-17T11:11:13.526Z,2.1
2023-02-17T11:13:14.884Z,3.7
2023-02-17T11:15:16.285Z,2.8
2023-02-17T11:17:20.941Z,3
2023-02-17T11:19:22.297Z,1.9
2023-02-17T11:21:23.693Z,3
2023-02-17T11:22:26.055Z,3.7
2023-02-17T11:24:27.381Z,1.4
2023-02-17T11:26:28.777Z,5.5
2023-02-17T11:28:30.161Z,2.8
2023-02-17T11:30:34.850Z,2.7
2023-02-17T11:32:36.262Z,1.7
2023-02-17T11:34:37.587Z,3.1
2023-02-17T11:36:38.936Z,2.1
2023-02-17T11:42:43.225Z,1.3
2023-02-17T11:44:47.745Z,2.1
2023-02-17T11:46:49.104Z,4.5
2023-02-17T11:52:53.203Z,5
2023-02-17T11:54:54.589Z,2.8
2023-02-17T11:59:00.598Z,1.7
2023-02-17T12:03:03.349Z,3.7
2023-02-17T12:05:04.775Z,3.3
2023-02-17T12:07:06.090Z,4.2
2023-02-17T12:09:07.439Z,3.1
2023-02-17T12:13:13.501Z,1.5
2023-02-17T12:15:14.904Z,2.6
2023-02-17T12:17:16.225Z,1.6
2023-02-17T12:22:21.338Z,5.5
2023-02-17T12:24:22.719Z,2.9
2023-02-17T12:26:27.391Z,4.9
2023-02-17T12:28:28.729Z,2
2023-02-17T12:30:30.288Z,2.2
2023-02-17T12:32:31.496Z,5
2023-02-17T12:34:32.873Z,5.9
2023-02-17T12:36:34.245Z,1.5
2023-02-17T12:38:35.643Z,1.9
2023-02-17T12:40:40.287Z,7.2
2023-02-17T12:42:41.676Z,3.2
2023-02-17T12:44:43.197Z,1.9
2023-02-17T12:46:44.428Z,4.5
2023-02-17T12:48:45.776Z,3.2
2023-02-17T12:50:47.162Z,3.4
2023-02-17T12:52:48.547Z,5
2023-02-17T12:54:53.181Z,7.5
2023-02-17T12:56:54.579Z,4.7
2023-02-17T12:58:55.936Z,4.9
2023-02-17T13:00:57.368Z,2.8
2023-02-17T13:02:58.693Z,0.8
2023-02-17T13:05:00.091Z,4.6
2023-02-17T13:07:01.425Z,2.5
2023-02-17T13:09:06.106Z,5.1
2023-02-17T13:11:07.504Z,1.4
2023-02-17T13:13:08.897Z,4
2023-02-17T13:14:11.235Z,0.8
2023-02-17T13:16:12.609Z,5.1
2023-02-17T13:18:14.003Z,1.1
2023-02-17T13:20:15.361Z,3.6
2023-02-17T13:22:20.061Z,3.6
2023-02-17T13:24:21.410Z,3.9
2023-02-17T13:26:22.827Z,5.7
2023-02-17T13:28:24.168Z,3.5
2023-02-17T13:30:25.597Z,5.1
2023-02-17T13:32:26.948Z,4.2
2023-02-17T13:34:28.309Z,3.3
2023-02-17T13:36:32.954Z,6.1
2023-02-17T13:38:34.350Z,3.6
2023-02-17T13:40:35.700Z,1.6
2023-02-17T13:42:37.082Z,5.4
2023-02-17T13:44:38.448Z,4.7
2023-02-17T13:46:39.803Z,5
2023-02-17T13:48:41.180Z,2.3
2023-02-17T14:02:54.113Z,6.2
2023-02-17T14:04:58.879Z,5.4
2023-02-17T14:07:00.193Z,5.2
2023-02-17T14:09:01.524Z,5.3
2023-02-17T14:11:24.487Z,6.9
2023-02-17T14:13:25.825Z,2.7
2023-02-17T14:15:27.207Z,3.2
2023-02-17T14:17:32.635Z,5.2
2023-02-17T14:19:33.276Z,5.3
2023-02-17T14:21:34.642Z,2.8
2023-02-17T14:23:36.032Z,3.1
2023-02-17T14:25:37.466Z,1.3
2023-02-17T14:27:38.798Z,6.4
2023-02-17T14:29:40.152Z,4.4
2023-02-17T14:31:44.942Z,4
2023-02-17T14:33:46.219Z,3.8
2023-02-17T14:35:47.578Z,3.3
2023-02-17T14:39:50.355Z,6.8
2023-02-17T14:41:51.701Z,1.7
2023-02-17T14:43:53.100Z,3.5
2023-02-17T14:45:57.786Z,5.6
2023-02-17T14:47:59.165Z,5.6
2023-02-17T14:50:00.538Z,3.9
2023-02-17T14:54:03.273Z,1.2
2023-02-17T14:56:05.058Z,3.1
2023-02-17T14:58:06.026Z,6.4
2023-02-17T15:00:10.723Z,7.2
2023-02-17T15:02:12.103Z,1.3
2023-02-17T15:04:13.436Z,3.1
2023-02-17T15:05:15.792Z,3.8
2023-02-17T15:07:17.174Z,2.9
2023-02-17T15:09:18.580Z,4.9
2023-02-17T15:11:19.951Z,2.6
2023-02-17T15:13:24.574Z,5
2023-02-17T15:15:25.995Z,6.8
2023-02-17T15:17:27.375Z,4.8
2023-02-17T15:19:28.777Z,1.8
2023-02-17T15:21:30.232Z,4.4
2023-02-17T15:23:31.477Z,5.4
2023-02-17T15:25:32.856Z,5.8
2023-02-17T15:27:37.560Z,4.9
2023-02-17T15:29:38.944Z,3.4
2023-02-17T15:31:40.407Z,5.4
2023-02-17T15:33:41.667Z,4.6
2023-02-17T15:35:43.114Z,3.8
2023-02-17T15:37:46.029Z,4.7
2023-02-17T15:39:47.333Z,4.3
2023-02-17T15:41:52.012Z,4.6
2023-02-17T15:43:53.365Z,2.6
2023-02-17T15:45:54.764Z,5.5
2023-02-17T15:47:56.169Z,4.7
2023-02-17T15:49:57.500Z,5.4
2023-02-17T15:51:58.869Z,4.5
2023-02-17T15:54:00.241Z,5.2
2023-02-17T15:56:05.346Z,5.3
2023-02-17T15:58:06.288Z,4.8
2023-02-17T16:00:07.663Z,3.1
2023-02-17T16:05:12.725Z,5.7
2023-02-17T16:07:14.096Z,2.9
2023-02-17T16:09:18.818Z,6.4
2023-02-17T16:11:20.141Z,4.1
2023-02-17T16:15:22.880Z,4.5
2023-02-17T16:17:24.260Z,7.4
2023-02-17T16:19:25.703Z,4.7
2023-02-17T16:21:27.053Z,4.4
2023-02-17T16:25:33.085Z,1.9
2023-02-17T16:27:34.465Z,3.1
2023-02-17T16:29:35.805Z,4.3
2023-02-17T16:37:44.616Z,5.8
2023-02-17T16:39:46.004Z,5.5
2023-02-17T16:41:47.389Z,3.8
2023-02-17T16:43:48.809Z,5.4
2023-02-17T16:53:58.954Z,6.7
2023-02-17T16:57:02.672Z,8.3
2023-02-17T16:59:04.072Z,4.9
2023-02-17T17:01:05.419Z,6.9
2023-02-17T17:03:06.856Z,4.9
2023-02-17T17:05:11.517Z,5.7
2023-02-17T17:07:12.885Z,3.2
2023-02-17T17:09:14.252Z,3.6
2023-02-17T17:11:15.624Z,2.8
2023-02-17T17:13:17.026Z,7.2
2023-02-17T17:15:18.414Z,6.8
2023-02-17T17:17:19.782Z,6.6
2023-02-17T17:19:24.446Z,2.1
2023-02-17T17:21:25.834Z,4.9
2023-02-17T17:23:27.219Z,4.8
2023-02-17T17:25:28.581Z,7.1
2023-02-17T17:35:38.732Z,5.3
2023-02-17T17:37:40.146Z,4.8
2023-02-17T17:43:44.249Z,6.3
2023-02-17T17:45:45.627Z,1.7
2023-02-17T17:47:50.300Z,9.1
2023-02-17T17:49:51.656Z,8.5
2023-02-17T17:51:53.051Z,6.2
2023-02-17T17:56:17.352Z,7.7
2023-02-17T17:58:18.738Z,8
2023-02-17T18:02:24.822Z,8.4
2023-02-17T18:06:27.562Z,7.5
2023-02-17T18:08:28.930Z,6.6
2023-02-17T18:10:30.347Z,10
2023-02-17T18:12:31.697Z,9.8
2023-02-17T18:22:41.905Z,10.7
2023-02-17T18:24:43.266Z,7.3
2023-02-17T18:26:44.638Z,7.9
2023-02-17T18:28:49.326Z,10.1
2023-02-17T18:30:50.845Z,8.4
2023-02-17T18:32:52.087Z,9.8
2023-02-17T18:34:53.449Z,9.2
2023-02-17T18:36:54.862Z,11
2023-02-17T18:38:56.239Z,8.8
2023-02-17T18:40:57.572Z,9.3
2023-02-17T18:43:02.243Z,10.5
2023-02-17T18:45:03.617Z,9.5
2023-02-17T18:47:04.978Z,8.7
2023-02-17T18:48:07.314Z,9.2
2023-02-17T18:50:08.688Z,10
2023-02-17T18:54:11.428Z,9.7
2023-02-17T18:58:17.505Z,6.9
2023-02-17T19:00:18.840Z,6.3
2023-02-17T19:02:20.273Z,11.2
2023-02-17T19:04:21.608Z,7.2
2023-02-17T19:06:22.989Z,8.7
2023-02-17T19:10:29.077Z,10.9
2023-02-17T19:12:30.435Z,11.3
2023-02-17T19:18:34.540Z,10.3
2023-02-17T19:20:35.917Z,6.9
2023-02-17T19:22:37.274Z,9.4
2023-02-17T19:24:41.977Z,8.4
2023-02-17T19:26:43.375Z,9.3
2023-02-17T19:32:47.461Z,8.8
2023-02-17T19:34:48.859Z,9.9
2023-02-17T19:36:50.246Z,13
2023-02-17T19:38:54.903Z,10.1
2023-02-17T19:42:57.626Z,10.8
2023-02-17T19:46:01.431Z,10
2023-02-17T19:52:08.758Z,10.3
2023-02-17T19:54:10.174Z,7.6
2023-02-17T20:00:14.270Z,9
2023-02-17T20:02:15.672Z,11.3
2023-02-17T20:04:17.018Z,10
2023-02-17T20:06:21.706Z,10.9
2023-02-17T20:08:23.105Z,8.9
2023-02-17T20:10:24.463Z,11.4
2023-02-17T20:12:25.838Z,11.5
2023-02-17T20:14:27.220Z,12.8
2023-02-17T20:16:28.680Z,4.9
2023-02-17T20:18:29.975Z,11.7
2023-02-17T20:20:34.662Z,10
2023-02-17T20:22:36.060Z,10.9
2023-02-17T20:24:37.422Z,10.2
2023-02-17T20:26:38.790Z,10.5
2023-02-17T20:28:40.185Z,8.9
2023-02-17T20:32:42.932Z,10.4
2023-02-17T20:34:47.606Z,11.2
2023-02-17T20:36:49.001Z,8.9
2023-02-17T20:38:50.339Z,12.6
2023-02-17T20:39:52.707Z,12.2
2023-02-17T20:41:54.058Z,10.3
2023-02-17T20:43:55.462Z,12.2
2023-02-17T20:45:56.825Z,9.6
2023-02-17T20:48:01.501Z,11.1
2023-02-17T20:50:02.880Z,10
2023-02-17T20:58:08.421Z,12.1
2023-02-17T21:00:09.807Z,12
2023-02-17T21:02:14.447Z,10.6
2023-02-17T21:04:15.877Z,12.1
2023-02-17T21:06:17.239Z,14
2023-02-17T21:08:18.616Z,11.9
2023-02-17T21:10:19.994Z,12.6
2023-02-17T21:12:21.382Z,8.7
2023-02-17T21:14:22.747Z,13.5
2023-02-17T21:16:27.483Z,12.1
2023-02-17T21:18:28.796Z,16.4
2023-02-17T21:20:30.174Z,15.7
2023-02-17T21:22:31.567Z,15.9
2023-02-17T21:24:32.928Z,11.5
2023-02-17T21:30:41.869Z,14.9
2023-02-17T21:32:43.237Z,16.5
2023-02-17T21:37:13.291Z,14.8
2023-02-17T21:41:16.061Z,16.1
2023-02-17T21:43:20.736Z,14.7
2023-02-17T21:45:22.169Z,10.7
2023-02-17T21:47:23.484Z,15.2
2023-02-17T21:49:24.857Z,13.6
2023-02-17T21:51:26.261Z,14.8
2023-02-17T21:55:29.005Z,16.6
2023-02-17T21:57:33.653Z,14.9
2023-02-17T22:05:39.132Z,13.3
2023-02-17T22:07:40.469Z,15.8
2023-02-17T22:09:41.878Z,14.8
2023-02-17T22:15:49.288Z,13.1
2023-02-17T22:17:50.663Z,11.9
2023-02-17T22:19:52.023Z,7.6
2023-02-17T22:21:53.392Z,11.9
2023-02-17T22:23:54.798Z,14.9
2023-02-17T22:25:59.493Z,14.4
2023-02-17T22:28:00.950Z,17.3
2023-02-17T22:30:02.374Z,13.1
2023-02-17T22:33:05.894Z,17.3
2023-02-17T22:35:07.295Z,14.1
2023-02-17T22:37:08.627Z,16.4
2023-02-17T22:39:13.296Z,18.4
2023-02-17T22:41:14.671Z,17.4
2023-02-17T22:45:17.408Z,15.8
2023-02-17T22:49:20.124Z,17.9
2023-02-17T22:51:21.501Z,12
2023-02-17T22:53:26.209Z,22.5
2023-02-17T22:55:27.556Z,17.8
2023-02-17T22:57:28.937Z,19.9
2023-02-17T22:59:30.271Z,18.3
2023-02-17T23:01:31.648Z,16.2
2023-02-17T23:03:33.001Z,22
2023-02-17T23:05:34.411Z,21.4
2023-02-17T23:07:39.016Z,23.2
2023-02-17T23:09:40.414Z,25.7
2023-02-17T23:11:41.769Z,19.9
2023-02-17T23:13:43.287Z,15.3
2023-02-17T23:15:44.495Z,19.2
2023-02-17T23:19:47.270Z,22.4
2023-02-17T23:21:51.873Z,18.5
2023-02-17T23:23:53.262Z,24.3
2023-02-17T23:25:54.635Z,23.7
2023-02-17T23:26:56.940Z,16.9
2023-02-17T23:30:59.717Z,23.6
2023-02-17T23:33:01.113Z,23.4
2023-02-17T23:35:05.751Z,23.7
2023-02-17T23:37:07.135Z,10.9
2023-02-17T23:39:08.488Z,22.2
2023-02-17T23:41:09.842Z,26.1
2023-02-17T23:43:11.200Z,24.4
2023-02-17T23:45:12.564Z,18.3
2023-02-17T23:47:13.931Z,21.6
2023-02-17T23:49:18.621Z,24.4
2023-02-17T23:51:20.007Z,17
2023-02-17T23:53:21.326Z,22.8
2023-02-17T23:59:25.403Z,19.9
